Time;durP1;ratioP1;P1;durP2;ratioP2;P2;SDS_P1;SDS_P2;PMS_P1;PMS_P2;Temp;Humidity;BMP_temperature;BMP_pressure;BME280_temperature;BME280_humidity;BME280_pressure;Samples;Min_cycle;Max_cycle;Signal;HPM_P1;HPM_P2
2021/04/28 00:01:25;;;;;;;1.48;1.38;;;18.10;45.80;;;;;;5076169;28;20632;-69
2021/04/28 00:03:51;;;;;;;1.75;1.65;;;18.10;45.80;;;;;;5076493;28;20637;-70
2021/04/28 00:06:17;;;;;;;1.42;1.33;;;18.00;45.70;;;;;;5094622;28;20205;-68
2021/04/28 00:08:42;;;;;;;1.60;1.50;;;18.10;45.80;;;;;;5093891;28;20162;-67
2021/04/28 00:11:08;;;;;;;1.77;1.67;;;18.00;45.70;;;;;;5094547;28;20166;-69
2021/04/28 00:13:33;;;;;;;1.90;1.60;;;18.00;45.70;;;;;;5076227;28;20306;-69
2021/04/28 00:15:59;;;;;;;2.33;1.50;;;18.00;45.80;;;;;;5093803;28;20174;-69
2021/04/28 00:18:25;;;;;;;1.60;1.50;;;18.00;45.80;;;;;;5059901;28;20170;-70
2021/04/28 00:20:51;;;;;;;1.40;1.30;;;18.00;45.80;;;;;;5094201;28;20165;-69
2021/04/28 00:23:17;;;;;;;1.60;1.50;;;18.00;45.80;;;;;;5075644;28;20166;-70
2021/04/28 00:25:43;;;;;;;3.13;1.55;;;18.00;45.80;;;;;;5059245;28;20178;-69
2021/04/28 00:28:09;;;;;;;1.60;1.50;;;18.00;45.80;;;;;;5059733;28;20234;-68
2021/04/28 00:30:35;;;;;;;1.88;1.50;;;18.00;45.80;;;;;;5075347;28;20213;-68
2021/04/28 00:33:00;;;;;;;1.75;1.65;;;18.00;45.80;;;;;;5076342;28;20304;-66
2021/04/28 00:35:26;;;;;;;1.67;1.55;;;18.00;45.90;;;;;;5059254;28;20177;-68
2021/04/28 00:37:52;;;;;;;2.00;1.30;;;17.90;45.80;;;;;;5075207;28;20172;-68
2021/04/28 00:40:20;;;;;;;1.33;1.23;;;17.90;45.80;;;;;;5093921;28;20263;-69
2021/04/28 00:42:46;;;;;;;1.90;1.80;;;18.00;46.00;;;;;;5075716;28;20170;-69
2021/04/28 00:45:13;;;;;;;1.63;1.40;;;18.00;45.90;;;;;;5058754;28;20192;-70
2021/04/28 00:47:38;;;;;;;2.33;1.75;;;18.00;45.90;;;;;;5075688;28;20236;-69
2021/04/28 00:50:05;;;;;;;1.55;1.45;;;17.90;45.90;;;;;;5075681;28;20624;-70
2021/04/28 00:52:31;;;;;;;1.48;1.35;;;17.90;45.90;;;;;;5058354;28;20186;-69
2021/04/28 00:54:56;;;;;;;1.60;1.50;;;17.90;45.90;;;;;;5059189;28;20162;-68
2021/04/28 00:57:22;;;;;;;1.52;1.42;;;17.90;45.90;;;;;;5059096;28;20198;-68
2021/04/28 00:59:48;;;;;;;1.50;1.33;;;17.90;45.90;;;;;;5058048;28;20207;-69
2021/04/28 01:02:13;;;;;;;1.65;1.55;;;17.90;46.00;;;;;;5059063;28;20184;-70
2021/04/28 01:04:39;;;;;;;2.05;1.65;;;17.90;46.00;;;;;;5058451;28;20258;-70
2021/04/28 01:07:05;;;;;;;1.80;1.70;;;17.90;46.00;;;;;;5058326;28;20209;-70
2021/04/28 01:09:33;;;;;;;2.08;1.55;;;17.90;46.00;;;;;;5075487;28;20292;-68
2021/04/28 01:11:58;;;;;;;1.60;1.50;;;17.90;46.00;;;;;;5074755;28;20629;-69
2021/04/28 01:14:24;;;;;;;1.50;1.40;;;17.80;46.00;;;;;;5058741;28;20179;-69
2021/04/28 01:16:50;;;;;;;1.45;1.35;;;17.80;46.10;;;;;;5058437;28;20252;-70
2021/04/28 01:19:15;;;;;;;1.75;1.58;;;17.90;46.10;;;;;;5041464;28;20339;-70
2021/04/28 01:21:41;;;;;;;1.40;1.30;;;17.80;45.90;;;;;;5058479;28;20172;-69
2021/04/28 01:24:07;;;;;;;2.28;1.90;;;17.90;46.00;;;;;;5075207;28;20774;-69
2021/04/28 01:26:33;;;;;;;1.40;1.30;;;17.80;46.10;;;;;;5092148;28;20210;-69
2021/04/28 01:28:59;;;;;;;1.50;1.40;;;17.80;46.00;;;;;;5075298;28;20668;-68
2021/04/28 01:31:25;;;;;;;1.77;1.67;;;17.80;46.10;;;;;;5093450;28;20189;-66
2021/04/28 01:33:54;;;;;;;1.70;1.60;;;17.80;46.10;;;;;;5092368;28;20606;-68
2021/04/28 01:36:21;;;;;;;1.60;1.50;;;17.80;46.10;;;;;;5075295;28;20226;-68
2021/04/28 01:38:50;;;;;;;1.45;1.35;;;17.80;46.10;;;;;;5058360;28;20201;-68
2021/04/28 01:41:15;;;;;;;1.55;1.45;;;17.80;46.00;;;;;;5057884;28;20644;-69
2021/04/28 01:43:41;;;;;;;1.88;1.77;;;17.80;46.10;;;;;;5092739;28;20178;-70
2021/04/28 01:46:07;;;;;;;1.90;1.40;;;17.80;46.10;;;;;;5075018;28;20237;-71
2021/04/28 01:48:32;;;;;;;1.40;1.30;;;17.80;46.10;;;;;;5057462;28;20170;-70
2021/04/28 01:50:58;;;;;;;1.38;1.20;;;17.80;46.10;;;;;;5075001;28;20172;-68
2021/04/28 01:53:24;;;;;;;1.77;1.65;;;17.80;46.10;;;;;;5075113;28;20672;-68
2021/04/28 01:55:51;;;;;;;1.70;1.60;;;17.80;46.10;;;;;;5057323;28;20648;-69
2021/04/28 01:58:17;;;;;;;2.05;1.80;;;17.80;46.10;;;;;;5074880;28;20170;-71
2021/04/28 02:00:43;;;;;;;1.40;1.30;;;17.70;46.10;;;;;;5059312;28;20181;-71
2021/04/28 02:03:08;;;;;;;1.83;1.73;;;17.70;46.20;;;;;;5078414;28;20177;-67
2021/04/28 02:05:34;;;;;;;1.77;1.67;;;17.70;46.10;;;;;;5078503;28;20648;-69
2021/04/28 02:08:00;;;;;;;2.38;2.17;;;17.70;46.10;;;;;;5078846;28;20186;-68
2021/04/28 02:10:26;;;;;;;1.52;1.42;;;17.70;46.20;;;;;;5078915;28;20645;-69
2021/04/28 02:12:51;;;;;;;1.60;1.50;;;17.70;46.10;;;;;;5078598;28;20170;-69
2021/04/28 02:15:18;;;;;;;1.70;1.60;;;17.70;46.10;;;;;;5078151;28;20177;-69
2021/04/28 02:17:44;;;;;;;1.75;1.65;;;17.70;46.20;;;;;;5062058;28;20173;-70
2021/04/28 02:20:13;;;;;;;4.22;1.60;;;17.70;46.20;;;;;;5078616;28;20175;-70
2021/04/28 02:22:39;;;;;;;1.40;1.30;;;17.70;46.20;;;;;;5061416;28;20684;-71
2021/04/28 02:25:05;;;;;;;1.77;1.30;;;17.70;46.10;;;;;;5078545;28;20209;-69
2021/04/28 02:27:31;;;;;;;1.55;1.45;;;17.70;46.20;;;;;;5061595;28;20241;-69
2021/04/28 02:29:56;;;;;;;1.40;1.30;;;17.70;46.30;;;;;;5077738;28;20245;-67
2021/04/28 02:32:22;;;;;;;1.60;1.48;;;17.60;46.10;;;;;;5096608;28;20166;-68
2021/04/28 02:34:48;;;;;;;1.40;1.30;;;17.60;46.10;;;;;;5096163;28;20178;-70
2021/04/28 02:37:14;;;;;;;1.30;1.20;;;17.60;46.10;;;;;;5077905;28;20191;-68
2021/04/28 02:39:44;;;;;;;1.60;1.50;;;17.60;46.10;;;;;;5061484;28;20201;-69
2021/04/28 02:42:09;;;;;;;1.60;1.50;;;17.60;46.10;;;;;;5078351;28;20166;-70
2021/04/28 02:44:35;;;;;;;1.77;1.67;;;17.60;46.10;;;;;;5060518;28;20165;-70
2021/04/28 02:47:03;;;;;;;1.90;1.80;;;17.60;46.10;;;;;;5061526;28;20212;-70
2021/04/28 02:49:28;;;;;;;1.50;1.40;;;17.60;46.10;;;;;;5061340;28;20573;-68
2021/04/28 02:51:54;;;;;;;1.73;1.50;;;17.60;46.20;;;;;;5044249;28;20174;-70
2021/04/28 02:54:20;;;;;;;1.50;1.40;;;17.60;46.10;;;;;;5078109;28;20572;-69
2021/04/28 02:56:46;;;;;;;1.50;1.40;;;17.60;46.20;;;;;;5061111;28;20244;-69
2021/04/28 02:59:11;;;;;;;1.55;1.45;;;17.60;46.10;;;;;;5060754;28;20170;-70
2021/04/28 03:01:39;;;;;;;1.83;1.73;;;17.60;46.20;;;;;;5077613;28;20222;-69
2021/04/28 03:04:05;;;;;;;1.70;1.60;;;17.60;46.20;;;;;;5077955;28;20166;-70
2021/04/28 03:06:30;;;;;;;1.40;1.30;;;17.50;46.10;;;;;;5043573;28;20197;-68
2021/04/28 03:08:56;;;;;;;1.73;1.40;;;17.60;46.20;;;;;;5077771;28;20181;-68
2021/04/28 03:11:21;;;;;;;1.60;1.50;;;17.50;46.80;;;;;;5060432;28;20184;-69
2021/04/28 03:13:47;;;;;;;1.40;1.30;;;17.50;46.20;;;;;;5077569;28;20549;-69
2021/04/28 03:16:13;;;;;;;1.70;1.60;;;17.50;46.10;;;;;;5077611;28;20515;-70
2021/04/28 03:18:38;;;;;;;1.63;1.52;;;17.50;46.20;;;;;;5060134;28;20162;-70
2021/04/28 03:21:06;;;;;;;1.65;1.48;;;17.50;46.20;;;;;;5077649;28;20181;-70
2021/04/28 03:23:31;;;;;;;1.50;1.40;;;17.50;46.30;;;;;;5095193;28;20689;-70
2021/04/28 03:25:57;;;;;;;2.80;1.63;;;17.50;46.80;;;;;;5076755;28;20284;-69
2021/04/28 03:28:22;;;;;;;1.55;1.40;;;17.50;46.20;;;;;;5060629;28;20231;-70
2021/04/28 03:30:48;;;;;;;1.50;1.40;;;17.50;46.30;;;;;;5076927;28;20927;-67
2021/04/28 03:33:14;;;;;;;1.90;1.70;;;17.50;46.20;;;;;;5094990;28;20260;-69
2021/04/28 03:35:40;;;;;;;1.75;1.65;;;17.50;46.30;;;;;;5076725;28;20517;-68
2021/04/28 03:38:05;;;;;;;2.08;1.48;;;17.50;46.20;;;;;;5077281;28;20166;-69
2021/04/28 03:40:31;;;;;;;1.52;1.42;;;17.50;46.30;;;;;;5076372;28;20629;-69
2021/04/28 03:42:57;;;;;;;1.35;1.25;;;17.50;46.30;;;;;;5095232;28;20196;-70
2021/04/28 03:45:22;;;;;;;1.33;1.25;;;17.50;46.30;;;;;;5095046;28;20617;-70
2021/04/28 03:47:48;;;;;;;1.50;1.40;;;17.50;46.30;;;;;;5059471;28;20293;-71
2021/04/28 03:50:14;;;;;;;1.50;1.40;;;17.50;46.30;;;;;;5077047;28;20177;-69
2021/04/28 03:52:40;;;;;;;1.48;1.38;;;17.50;46.30;;;;;;5076794;28;20165;-69
2021/04/28 03:55:06;;;;;;;1.35;1.30;;;17.40;46.20;;;;;;5076383;28;20170;-69
2021/04/28 03:57:32;;;;;;;1.65;1.52;;;17.40;46.30;;;;;;5076708;28;20181;-70
2021/04/28 03:59:57;;;;;;;1.92;1.25;;;17.40;46.30;;;;;;5076756;28;20181;-71
2021/04/28 04:02:23;;;;;;;1.33;1.23;;;17.40;46.20;;;;;;5094402;28;20170;-69
2021/04/28 04:04:48;;;;;;;1.50;1.40;;;17.40;46.30;;;;;;5094374;28;20668;-69
2021/04/28 04:07:14;;;;;;;2.75;1.50;;;17.40;46.30;;;;;;5094959;28;20209;-69
2021/04/28 04:09:39;;;;;;;1.60;1.50;;;17.40;46.30;;;;;;5093790;28;20582;-68
2021/04/28 04:12:05;;;;;;;1.50;1.40;;;17.40;46.30;;;;;;5059848;28;20253;-69
2021/04/28 04:14:31;;;;;;;1.70;1.60;;;17.40;46.30;;;;;;5094358;28;20174;-69
2021/04/28 04:16:56;;;;;;;1.70;1.60;;;17.40;46.30;;;;;;5093866;28;20222;-70
2021/04/28 04:19:22;;;;;;;1.70;1.60;;;17.30;46.30;;;;;;5076671;28;20701;-70
2021/04/28 04:21:47;;;;;;;1.40;1.30;;;17.40;46.40;;;;;;5093493;28;20544;-70
2021/04/28 04:24:13;;;;;;;2.03;1.83;;;17.40;46.30;;;;;;5059162;28;20166;-70
2021/04/28 04:26:39;;;;;;;1.58;1.48;;;17.30;46.40;;;;;;5076152;28;20213;-69
2021/04/28 04:29:04;;;;;;;1.90;1.63;;;17.40;46.40;;;;;;5093469;28;20733;-69
2021/04/28 04:31:31;;;;;;;1.50;1.40;;;17.30;46.40;;;;;;5075997;28;20182;-67
2021/04/28 04:33:57;;;;;;;2.08;1.40;;;17.30;47.00;;;;;;5075980;28;20260;-69
2021/04/28 04:36:22;;;;;;;2.17;1.65;;;17.30;46.40;;;;;;5093540;28;20291;-69
2021/04/28 04:38:48;;;;;;;1.60;1.40;;;17.30;46.40;;;;;;5094091;28;20166;-68
2021/04/28 04:41:13;;;;;;;1.58;1.30;;;17.30;46.40;;;;;;5059437;28;20589;-69
2021/04/28 04:43:39;;;;;;;1.50;1.40;;;17.30;46.50;;;;;;5075076;28;20174;-69
2021/04/28 04:46:04;;;;;;;1.50;1.40;;;17.30;46.50;;;;;;5093738;28;20189;-70
2021/04/28 04:48:30;;;;;;;1.98;1.65;;;17.30;46.60;;;;;;5075417;28;20235;-69
2021/04/28 04:50:56;;;;;;;1.55;1.42;;;17.30;46.50;;;;;;5075223;28;20236;-68
2021/04/28 04:53:21;;;;;;;1.67;1.50;;;17.30;46.60;;;;;;5076033;28;20178;-68
2021/04/28 04:55:47;;;;;;;1.58;1.48;;;17.30;47.20;;;;;;5093434;28;20180;-69
2021/04/28 04:58:12;;;;;;;1.30;1.20;;;17.30;46.50;;;;;;5093186;28;20173;-69
2021/04/28 05:00:38;;;;;;;1.60;1.50;;;17.30;46.60;;;;;;5093470;28;20170;-70
2021/04/28 05:03:04;;;;;;;1.73;1.60;;;17.30;46.50;;;;;;5075566;28;20637;-68
2021/04/28 05:05:29;;;;;;;2.15;1.48;;;17.30;46.40;;;;;;5074472;28;20169;-69
2021/04/28 05:07:55;;;;;;;1.60;1.50;;;17.30;46.30;;;;;;5058795;28;20209;-68
2021/04/28 05:10:20;;;;;;;1.42;1.33;;;17.40;46.20;;;;;;5093461;28;20166;-70
2021/04/28 05:12:46;;;;;;;1.60;1.50;;;17.40;46.20;;;;;;5057995;28;20543;-69
2021/04/28 05:15:13;;;;;;;1.40;1.30;;;17.40;46.30;;;;;;5058851;28;20176;-69
2021/04/28 05:17:39;;;;;;;2.03;1.50;;;17.50;46.30;;;;;;5041837;28;20177;-69
2021/04/28 05:20:05;;;;;;;1.30;1.20;;;17.50;46.20;;;;;;5092730;28;20245;-70
2021/04/28 05:22:31;;;;;;;2.85;1.63;;;17.50;46.10;;;;;;5093120;28;20173;-70
2021/04/28 05:24:57;;;;;;;2.08;1.42;;;17.50;46.10;;;;;;5074687;28;20531;-69
2021/04/28 05:27:25;;;;;;;1.50;1.40;;;17.50;46.10;;;;;;5075260;28;20680;-68
2021/04/28 05:29:52;;;;;;;1.67;1.40;;;17.50;46.00;;;;;;5075138;28;20580;-67
2021/04/28 05:32:18;;;;;;;2.05;1.67;;;17.50;46.00;;;;;;5074375;28;20182;-68
2021/04/28 05:34:44;;;;;;;1.95;1.50;;;17.50;46.10;;;;;;5092719;28;20173;-66
2021/04/28 05:37:12;;;;;;;1.67;1.42;;;17.50;46.10;;;;;;5075145;28;20178;-67
2021/04/28 05:39:38;;;;;;;1.33;1.23;;;17.50;46.00;;;;;;5092215;28;20174;-69
2021/04/28 05:42:04;;;;;;;1.67;1.48;;;17.50;46.10;;;;;;5075207;28;20690;-70
2021/04/28 05:44:29;;;;;;;1.45;1.35;;;17.50;46.10;;;;;;5092571;28;20589;-69
2021/04/28 05:46:55;;;;;;;1.67;1.58;;;17.50;46.10;;;;;;5074453;28;20206;-68
2021/04/28 05:49:20;;;;;;;1.63;1.30;;;17.50;46.10;;;;;;5092807;28;20219;-67
2021/04/28 05:51:46;;;;;;;1.67;1.58;;;17.50;46.00;;;;;;5074721;28;20626;-68
2021/04/28 05:54:11;;;;;;;1.50;1.38;;;17.50;46.00;;;;;;5074396;28;20169;-68
2021/04/28 05:56:38;;;;;;;1.45;1.25;;;17.50;46.00;;;;;;5092575;28;20230;-68
2021/04/28 05:59:04;;;;;;;1.33;1.23;;;17.50;46.70;;;;;;5058306;28;20621;-69
2021/04/28 06:01:29;;;;;;;1.38;1.27;;;17.50;46.10;;;;;;5057331;28;20196;-69
2021/04/28 06:03:55;;;;;;;1.33;1.23;;;17.50;46.10;;;;;;5074718;28;20174;-67
2021/04/28 06:06:20;;;;;;;1.75;1.33;;;17.60;46.10;;;;;;5092778;28;20213;-69
2021/04/28 06:08:46;;;;;;;2.08;1.60;;;17.60;46.10;;;;;;5073832;28;20178;-68
2021/04/28 06:11:12;;;;;;;1.52;1.33;;;17.50;46.00;;;;;;5092502;28;20660;-69
2021/04/28 06:13:37;;;;;;;1.25;1.10;;;17.60;46.00;;;;;;5092647;28;20185;-69
2021/04/28 06:16:03;;;;;;;1.40;1.30;;;17.60;46.10;;;;;;5092146;28;20170;-69
2021/04/28 06:18:28;;;;;;;1.50;1.40;;;17.60;46.00;;;;;;5074261;28;20184;-70
2021/04/28 06:20:54;;;;;;;1.80;1.27;;;17.50;46.70;;;;;;5074489;28;20550;-67
2021/04/28 06:23:20;;;;;;;1.13;1.00;;;17.60;46.30;;;;;;5057221;28;20169;-68
2021/04/28 06:25:46;;;;;;;1.45;1.35;;;17.60;46.10;;;;;;5092337;28;20260;-67
2021/04/28 06:28:11;;;;;;;1.48;1.20;;;17.60;46.00;;;;;;5092844;28;20227;-71
2021/04/28 06:30:37;;;;;;;1.40;1.30;;;17.70;46.00;;;;;;5073542;28;20234;-68
2021/04/28 06:33:02;;;;;;;1.92;1.42;;;17.80;46.00;;;;;;5074510;28;20253;-69
2021/04/28 06:35:28;;;;;;;1.55;1.33;;;17.90;45.80;;;;;;5073428;28;20165;-70
2021/04/28 06:37:54;;;;;;;2.50;1.63;;;17.90;45.60;;;;;;5074561;28;20235;-71
2021/04/28 06:40:20;;;;;;;1.52;1.42;;;17.90;45.60;;;;;;5074560;28;20698;-72
2021/04/28 06:42:47;;;;;;;3.45;1.50;;;17.90;45.80;;;;;;5091671;28;20173;-69
2021/04/28 06:45:12;;;;;;;1.85;1.52;;;17.90;45.80;;;;;;5092470;28;20597;-68
2021/04/28 06:47:38;;;;;;;1.80;1.50;;;17.90;45.90;;;;;;5060261;28;20252;-68
2021/04/28 06:50:04;;;;;;;3.15;1.75;;;17.90;46.00;;;;;;5077320;28;20178;-68
2021/04/28 06:52:30;;;;;;;1.80;1.55;;;17.90;46.10;;;;;;5077893;28;20174;-68
2021/04/28 06:54:55;;;;;;;2.35;1.42;;;17.90;46.20;;;;;;5078227;28;20601;-71
2021/04/28 06:57:21;;;;;;;1.55;1.38;;;17.90;46.40;;;;;;5095412;28;20166;-70
2021/04/28 06:59:46;;;;;;;2.78;1.52;;;17.90;46.40;;;;;;5077566;28;20166;-71
2021/04/28 07:02:12;;;;;;;2.60;1.67;;;17.90;46.50;;;;;;5095996;28;20226;-70
2021/04/28 07:04:38;;;;;;;4.75;1.80;;;18.00;46.50;;;;;;5076907;28;20169;-72
2021/04/28 07:07:03;;;;;;;1.80;1.70;;;17.90;46.50;;;;;;5077740;28;20618;-69
2021/04/28 07:09:29;;;;;;;1.70;1.60;;;18.00;46.50;;;;;;5077350;28;20644;-70
2021/04/28 07:11:54;;;;;;;3.20;1.77;;;18.00;46.50;;;;;;5077017;28;20166;-69
2021/04/28 07:14:20;;;;;;;2.78;2.13;;;18.00;46.50;;;;;;5095735;28;20208;-68
2021/04/28 07:16:46;;;;;;;1.63;1.52;;;18.00;46.60;;;;;;5095399;28;20166;-68
2021/04/28 07:19:11;;;;;;;3.70;1.58;;;18.00;46.40;;;;;;5095066;28;20174;-68
2021/04/28 07:21:37;;;;;;;3.72;1.58;;;18.00;46.40;;;;;;5060655;28;20269;-71
2021/04/28 07:24:04;;;;;;;4.20;1.80;;;18.00;46.50;;;;;;5060504;28;20174;-65
2021/04/28 07:26:30;;;;;;;4.43;1.88;;;18.10;46.50;;;;;;5094601;28;20197;-63
2021/04/28 07:28:56;;;;;;;3.03;1.83;;;18.10;46.40;;;;;;5077208;28;20398;-71
2021/04/28 07:31:21;;;;;;;5.25;1.80;;;18.10;46.50;;;;;;5060546;28;20178;-68
2021/04/28 07:33:47;;;;;;;3.65;1.80;;;18.10;47.00;;;;;;5075776;28;20593;-68
2021/04/28 07:36:13;;;;;;;4.75;1.50;;;18.10;46.40;;;;;;5094438;28;20162;-70
2021/04/28 07:38:39;;;;;;;3.90;1.90;;;18.10;46.40;;;;;;5093366;28;20247;-72
2021/04/28 07:41:04;;;;;;;2.80;2.22;;;18.10;46.50;;;;;;5059956;28;20177;-71
2021/04/28 07:43:30;;;;;;;4.55;1.90;;;18.00;46.50;;;;;;5059975;28;20196;-67
2021/04/28 07:45:56;;;;;;;2.78;1.60;;;18.00;46.50;;;;;;5094241;28;21113;-67
2021/04/28 07:48:21;;;;;;;2.90;1.98;;;18.10;46.60;;;;;;5043559;28;20182;-67
2021/04/28 07:50:47;;;;;;;3.25;1.92;;;18.10;46.50;;;;;;5076681;28;20559;-66
2021/04/28 07:53:13;;;;;;;1.63;1.50;;;18.10;46.50;;;;;;5076305;28;20166;-72
2021/04/28 07:55:38;;;;;;;2.45;1.55;;;18.00;46.50;;;;;;5042863;28;20634;-68
2021/04/28 07:58:05;;;;;;;3.30;1.98;;;18.00;47.10;;;;;;5093699;28;20270;-69
2021/04/28 08:00:30;;;;;;;1.88;1.30;;;18.10;46.50;;;;;;5075913;28;20646;-67
2021/04/28 08:02:56;;;;;;;3.75;2.03;;;18.10;46.40;;;;;;5076786;28;20215;-69
2021/04/28 08:05:22;;;;;;;2.85;1.67;;;18.10;46.40;;;;;;5059920;28;20256;-67
2021/04/28 08:07:48;;;;;;;1.60;1.50;;;18.20;46.40;;;;;;5075648;28;20221;-67
2021/04/28 08:10:14;;;;;;;1.95;1.70;;;18.10;46.40;;;;;;5076583;28;20162;-68
2021/04/28 08:12:39;;;;;;;2.00;1.48;;;18.10;46.30;;;;;;5094221;28;20177;-68
2021/04/28 08:15:06;;;;;;;2.28;1.58;;;18.20;46.40;;;;;;5075982;28;20177;-71
2021/04/28 08:17:31;;;;;;;3.42;1.73;;;18.20;46.30;;;;;;5076168;28;20239;-67
2021/04/28 08:19:58;;;;;;;2.00;1.40;;;18.20;47.00;;;;;;5094390;28;20185;-69
2021/04/28 08:22:24;;;;;;;3.53;1.42;;;18.20;46.30;;;;;;5075823;28;20551;-72
2021/04/28 08:24:49;;;;;;;2.78;1.85;;;18.20;46.40;;;;;;5042671;28;20177;-67
2021/04/28 08:27:15;;;;;;;2.33;1.48;;;18.20;46.40;;;;;;5076333;28;20293;-66
2021/04/28 08:29:40;;;;;;;2.10;1.90;;;18.20;46.40;;;;;;5075099;28;20676;-66
2021/04/28 08:32:06;;;;;;;2.10;1.80;;;18.20;46.30;;;;;;5076153;28;20224;-65
2021/04/28 08:34:32;;;;;;;2.17;1.60;;;18.20;46.30;;;;;;5075760;28;20226;-70
2021/04/28 08:36:58;;;;;;;4.30;1.85;;;18.20;46.40;;;;;;5075460;28;20251;-69
2021/04/28 08:39:23;;;;;;;1.70;1.60;;;18.20;46.40;;;;;;5076012;28;20192;-69
2021/04/28 08:41:50;;;;;;;1.95;1.67;;;18.30;46.40;;;;;;5093758;28;20174;-68
2021/04/28 08:44:16;;;;;;;2.65;1.65;;;18.30;46.40;;;;;;5075599;28;20166;-68
2021/04/28 08:46:42;;;;;;;1.40;1.30;;;18.30;46.40;;;;;;5075460;28;20691;-71
2021/04/28 08:49:07;;;;;;;1.90;1.52;;;18.30;46.40;;;;;;5093403;28;20201;-67
2021/04/28 08:51:33;;;;;;;1.90;1.55;;;18.30;46.40;;;;;;5058941;28;20648;-66
2021/04/28 08:53:59;;;;;;;2.08;1.70;;;18.30;46.50;;;;;;5059176;28;20166;-73
2021/04/28 08:56:25;;;;;;;1.70;1.60;;;18.30;46.50;;;;;;5058519;28;20193;-73
2021/04/28 08:58:51;;;;;;;2.38;1.35;;;18.30;46.50;;;;;;5058864;28;20506;-67
2021/04/28 09:01:32;;;;;;;2.80;1.35;;;18.20;47.30;;;;;;5093526;28;20617;-68
2021/04/28 09:03:59;;;;;;;3.72;1.95;;;18.30;46.60;;;;;;5074883;28;20200;-71
2021/04/28 09:06:35;;;;;;;2.75;1.77;;;18.30;46.60;;;;;;5075529;28;20190;-68
2021/04/28 09:09:11;;;;;;;2.25;1.20;;;18.30;46.50;;;;;;5093198;28;20181;-70
2021/04/28 09:11:39;;;;;;;2.78;1.50;;;18.30;46.50;;;;;;5092548;28;20170;-70
2021/04/28 09:14:15;;;;;;;1.80;1.67;;;18.40;46.50;;;;;;5058649;28;20285;-67
2021/04/28 09:17:07;;;;;;;2.75;1.50;;;18.40;46.50;;;;;;5093197;28;20248;-71
2021/04/28 09:22:04;;;;;;;1.92;1.45;;;18.40;46.50;;;;;;5075920;28;20198;-68
2021/04/28 09:24:35;;;;;;;2.22;1.60;;;18.40;46.50;;;;;;5074346;28;20166;-67
2021/04/28 09:27:00;;;;;;;1.40;1.30;;;18.40;46.50;;;;;;5074964;28;20204;-72
2021/04/28 09:29:28;;;;;;;2.00;1.50;;;18.40;47.00;;;;;;5075292;28;20217;-76
2021/04/28 09:32:03;;;;;;;3.80;1.70;;;18.50;46.50;;;;;;5074743;28;20668;-74
2021/04/28 09:34:36;;;;;;;2.00;1.60;;;18.50;46.50;;;;;;5074990;28;20169;-67
2021/04/28 09:37:07;;;;;;;1.77;1.38;;;18.50;46.50;;;;;;5075272;28;20249;-69
2021/04/28 09:39:51;;;;;;;3.30;1.20;;;18.50;46.50;;;;;;5057827;28;20174;-69
2021/04/28 09:42:17;;;;;;;3.60;1.40;;;18.60;46.70;;;;;;5058572;28;20170;-72
2021/04/28 09:44:50;;;;;;;1.92;1.40;;;18.60;47.30;;;;;;5058081;28;20172;-69
2021/04/28 09:47:20;;;;;;;3.50;1.70;;;18.70;46.60;;;;;;5092281;28;20688;-71
2021/04/28 09:49:45;;;;;;;1.95;1.70;;;18.70;46.60;;;;;;5075237;28;20177;-67
2021/04/28 09:52:11;;;;;;;2.97;1.30;;;18.80;46.60;;;;;;5092815;28;20173;-67
2021/04/28 09:54:37;;;;;;;1.02;1.00;;;18.80;46.70;;;;;;5057675;28;20173;-76
2021/04/28 09:57:02;;;;;;;4.15;1.45;;;18.80;46.70;;;;;;5058161;28;20204;-77
2021/04/28 09:59:41;;;;;;;1.95;1.75;;;18.80;46.70;;;;;;5074109;28;20648;-69
2021/04/28 10:02:07;;;;;;;2.38;1.70;;;18.80;46.80;;;;;;5092515;28;20534;-68
2021/04/28 10:04:32;;;;;;;2.60;1.45;;;18.90;47.00;;;;;;5057634;28;20174;-77
2021/04/28 10:06:59;;;;;;;1.48;1.38;;;18.80;47.00;;;;;;5074179;28;20220;-70
2021/04/28 10:09:37;;;;;;;5.03;1.55;;;18.90;47.00;;;;;;5092853;28;20173;-72
2021/04/28 10:12:05;;;;;;;2.85;1.45;;;18.90;47.10;;;;;;5058997;28;20169;-69
2021/04/28 10:14:31;;;;;;;1.65;1.33;;;18.90;47.10;;;;;;5073917;28;20166;-71
2021/04/28 10:16:59;;;;;;;4.18;1.48;;;18.90;47.10;;;;;;5058181;28;20633;-68
2021/04/28 10:19:25;;;;;;;2.05;1.20;;;18.90;47.00;;;;;;5075000;28;20256;-71
2021/04/28 10:21:51;;;;;;;4.10;1.50;;;19.00;47.00;;;;;;5075396;28;20253;-69
2021/04/28 10:24:18;;;;;;;4.82;1.65;;;19.10;47.00;;;;;;5096434;28;20177;-69
2021/04/28 10:26:43;;;;;;;1.98;1.42;;;19.10;47.00;;;;;;5061651;28;20333;-72
2021/04/28 10:29:10;;;;;;;3.55;1.50;;;19.20;47.00;;;;;;5061013;28;20296;-71
2021/04/28 10:31:36;;;;;;;1.75;1.45;;;19.10;46.80;;;;;;5045067;28;20252;-72
2021/04/28 10:34:02;;;;;;;2.50;1.60;;;19.10;46.90;;;;;;5045093;28;20174;-76
2021/04/28 10:36:27;;;;;;;2.70;1.25;;;19.10;46.90;;;;;;5060984;28;20628;-74
2021/04/28 10:38:53;;;;;;;2.45;1.35;;;19.10;47.00;;;;;;5061552;28;20176;-71
2021/04/28 10:41:41;;;;;;;3.53;1.45;;;19.10;46.90;;;;;;5061462;28;20170;-71
2021/04/28 10:44:24;;;;;;;2.08;1.67;;;19.10;46.90;;;;;;5078085;28;20177;-74
2021/04/28 10:46:49;;;;;;;1.42;1.20;;;19.10;46.80;;;;;;5063501;28;20733;-76
2021/04/28 10:49:16;;;;;;;1.27;1.17;;;19.10;46.80;;;;;;5060760;28;20209;-69
2021/04/28 10:51:43;;;;;;;2.20;1.45;;;19.10;46.80;;;;;;5095975;28;20223;-66
2021/04/28 10:54:27;;;;;;;1.80;1.20;;;19.20;46.70;;;;;;5061437;28;20158;-70
2021/04/28 10:57:03;;;;;;;2.45;1.75;;;19.20;46.60;;;;;;5044118;28;20630;-70
2021/04/28 10:59:32;;;;;;;1.77;1.20;;;19.20;46.60;;;;;;5077535;28;20193;-64
2021/04/28 11:02:08;;;;;;;1.80;1.30;;;19.20;46.70;;;;;;5095939;28;20174;-69
2021/04/28 11:04:34;;;;;;;2.38;1.60;;;19.20;46.70;;;;;;5076918;28;20264;-70
2021/04/28 11:06:59;;;;;;;2.20;1.40;;;19.20;46.80;;;;;;5061170;28;20258;-70
2021/04/28 11:09:25;;;;;;;2.95;1.20;;;19.20;46.80;;;;;;5077698;28;20166;-70
2021/04/28 11:11:53;;;;;;;2.33;1.35;;;19.20;46.80;;;;;;5076675;28;20178;-66
2021/04/28 11:14:19;;;;;;;4.63;1.40;;;19.30;46.90;;;;;;5095627;28;20550;-66
2021/04/28 11:16:54;;;;;;;1.42;1.33;;;19.30;46.80;;;;;;5094646;28;20161;-67
2021/04/28 11:19:21;;;;;;;18.27;1.73;;;19.30;46.80;;;;;;5077616;28;20261;-66
2021/04/28 11:22:07;;;;;;;3.05;1.40;;;19.30;46.80;;;;;;5077385;28;20170;-66
2021/04/28 11:24:59;;;;;;;2.03;1.45;;;19.40;46.90;;;;;;5079468;28;20173;-66
2021/04/28 11:27:56;;;;;;;1.33;1.20;;;19.40;47.50;;;;;;5095437;28;20211;-67
2021/04/28 11:30:27;;;;;;;2.63;1.63;;;19.40;46.90;;;;;;5079221;28;20221;-66
2021/04/28 11:33:15;;;;;;;3.47;1.35;;;19.40;46.90;;;;;;5060025;28;20166;-68
2021/04/28 11:35:45;;;;;;;2.85;1.20;;;19.40;47.00;;;;;;5076753;28;20648;-68
2021/04/28 11:38:16;;;;;;;3.00;1.50;;;19.40;47.10;;;;;;5094674;28;20166;-64
2021/04/28 11:41:01;;;;;;;2.78;1.30;;;19.30;47.00;;;;;;5076953;28;20180;-66
2021/04/28 11:43:28;;;;;;;2.95;1.35;;;19.30;47.10;;;;;;5077860;28;20636;-65
2021/04/28 11:46:01;;;;;;;1.55;1.30;;;19.30;47.20;;;;;;5094473;28;20170;-66
2021/04/28 11:48:26;;;;;;;2.42;1.38;;;19.30;47.10;;;;;;5077169;28;20194;-66
2021/04/28 11:50:54;;;;;;;1.35;1.10;;;19.40;47.10;;;;;;5076862;28;20617;-69
2021/04/28 11:53:20;;;;;;;6.28;1.75;;;19.40;47.00;;;;;;5076310;28;20165;-68
2021/04/28 11:55:46;;;;;;;4.78;1.50;;;19.40;47.00;;;;;;5076740;28;20205;-73
2021/04/28 11:58:32;;;;;;;1.92;1.30;;;19.40;46.90;;;;;;5094843;28;20572;-73
2021/04/28 12:01:01;;;;;;;3.00;1.38;;;19.40;46.90;;;;;;5076348;28;20170;-72
2021/04/28 12:03:26;;;;;;;1.88;1.23;;;19.40;46.80;;;;;;5094803;28;20172;-68
2021/04/28 12:05:52;;;;;;;2.50;1.20;;;19.40;46.70;;;;;;5075793;28;20266;-66
2021/04/28 12:08:17;;;;;;;3.17;1.30;;;19.40;46.70;;;;;;5076801;28;20680;-72
2021/04/28 12:10:58;;;;;;;2.22;1.40;;;19.40;46.60;;;;;;5059630;28;20526;-69
2021/04/28 12:13:24;;;;;;;1.60;1.30;;;19.50;46.60;;;;;;5075928;28;20166;-71
2021/04/28 12:15:53;;;;;;;2.65;1.48;;;19.50;46.60;;;;;;5075967;28;20200;-72
2021/04/28 12:18:32;;;;;;;1.20;1.10;;;19.50;46.50;;;;;;5094368;28;20222;-66
2021/04/28 12:20:59;;;;;;;2.13;1.10;;;19.40;46.50;;;;;;5093680;28;20643;-69
2021/04/28 12:23:24;;;;;;;1.02;1.00;;;19.50;46.50;;;;;;5059847;28;20515;-72
2021/04/28 12:25:50;;;;;;;1.73;1.10;;;19.50;47.10;;;;;;5093926;28;20185;-72
2021/04/28 12:28:16;;;;;;;1.98;1.20;;;19.50;47.10;;;;;;5058824;28;20292;-73
2021/04/28 12:30:41;;;;;;;1.23;1.10;;;19.50;47.10;;;;;;5075706;28;20225;-74
2021/04/28 12:33:07;;;;;;;1.90;1.25;;;19.50;46.40;;;;;;5076229;28;20177;-74
2021/04/28 12:35:35;;;;;;;1.17;1.08;;;19.60;46.40;;;;;;5093271;28;20173;-73
2021/04/28 12:38:09;;;;;;;1.52;1.42;;;19.60;46.40;;;;;;5076722;28;20650;-64
2021/04/28 12:40:44;;;;;;;2.65;1.40;;;19.60;46.30;;;;;;5075924;28;20197;-73
2021/04/28 12:43:17;;;;;;;1.33;1.10;;;19.60;46.30;;;;;;5059210;28;20166;-71
2021/04/28 12:45:43;;;;;;;1.73;1.23;;;19.50;46.40;;;;;;5059419;28;20162;-66
2021/04/28 12:48:19;;;;;;;1.20;1.10;;;19.50;46.40;;;;;;5041953;28;20225;-67
2021/04/28 12:50:46;;;;;;;1.85;1.48;;;19.50;46.40;;;;;;5079648;28;20514;-65